createdAt,value
2018-07-08T00:01:07.944Z,3.10
2018-07-08T00:03:36.054Z,2.63
2018-07-08T00:06:04.166Z,4.90
2018-07-08T00:08:32.278Z,2.73
2018-07-08T00:11:00.489Z,4.37
2018-07-08T00:13:28.565Z,3.50
2018-07-08T00:15:56.632Z,3.57
2018-07-08T00:18:25.277Z,2.43
2018-07-08T00:20:54.545Z,4.60
2018-07-08T00:23:23.388Z,3.90
2018-07-08T00:25:51.612Z,3.53
2018-07-08T00:28:19.846Z,2.87
2018-07-08T00:30:47.933Z,4.53
2018-07-08T00:33:15.975Z,5.37
2018-07-08T00:35:44.100Z,3.50
2018-07-08T00:38:12.224Z,2.67
2018-07-08T00:40:40.630Z,3.57
2018-07-08T00:43:08.730Z,3.33
2018-07-08T00:45:36.744Z,3.10
2018-07-08T00:48:04.874Z,6.90
2018-07-08T00:50:32.976Z,3.23
2018-07-08T00:53:01.022Z,4.83
2018-07-08T00:55:29.091Z,4.10
2018-07-08T00:57:57.222Z,3.43
2018-07-08T01:00:31.554Z,2.90
2018-07-08T01:03:00.423Z,5.63
2018-07-08T01:05:29.038Z,3.40
2018-07-08T01:07:57.267Z,2.83
2018-07-08T01:10:25.350Z,4.37
2018-07-08T01:12:53.378Z,3.53
2018-07-08T01:15:21.494Z,4.13
2018-07-08T01:17:49.554Z,2.87
2018-07-08T01:20:17.642Z,3.07
2018-07-08T01:22:45.754Z,4.77
2018-07-08T01:25:14.984Z,8.03
2018-07-08T01:27:43.066Z,3.43
2018-07-08T01:30:12.492Z,4.67
2018-07-08T01:32:40.575Z,3.67
2018-07-08T01:35:09.034Z,4.87
2018-07-08T01:37:37.072Z,2.97
2018-07-08T01:40:05.373Z,5.00
2018-07-08T01:42:33.410Z,4.57
2018-07-08T01:45:01.713Z,4.57
2018-07-08T01:47:29.778Z,4.50
2018-07-08T01:49:57.850Z,4.93
2018-07-08T01:52:26.282Z,4.53
2018-07-08T01:54:55.174Z,3.50
2018-07-08T01:57:24.106Z,6.23
2018-07-08T01:59:52.842Z,3.33
2018-07-08T02:02:21.466Z,4.60
2018-07-08T02:04:50.298Z,3.10
2018-07-08T02:07:18.341Z,5.57
2018-07-08T02:09:47.104Z,3.20
2018-07-08T02:12:15.352Z,3.03
2018-07-08T02:14:43.630Z,3.33
2018-07-08T02:17:11.704Z,5.77
2018-07-08T02:19:39.756Z,6.80
2018-07-08T02:22:08.122Z,3.63
2018-07-08T02:24:36.198Z,3.20
2018-07-08T02:27:04.678Z,4.43
2018-07-08T02:29:33.341Z,5.40
2018-07-08T02:32:01.412Z,4.60
2018-07-08T02:34:29.615Z,5.03
2018-07-08T02:36:57.854Z,5.17
2018-07-08T02:39:25.922Z,5.70
2018-07-08T02:41:54.234Z,3.83
2018-07-08T02:44:22.310Z,4.73
2018-07-08T02:46:50.359Z,5.50
2018-07-08T02:49:18.940Z,4.10
2018-07-08T02:51:47.167Z,4.00
2018-07-08T02:54:15.301Z,4.97
2018-07-08T02:56:43.439Z,5.80
2018-07-08T02:59:11.512Z,3.93
2018-07-08T03:01:39.572Z,6.03
2018-07-08T03:04:07.674Z,4.57
2018-07-08T03:06:35.707Z,5.70
2018-07-08T03:09:04.261Z,4.27
2018-07-08T03:11:32.326Z,5.77
2018-07-08T03:14:00.372Z,7.23
2018-07-08T03:16:28.437Z,5.00
2018-07-08T03:18:56.544Z,5.33
2018-07-08T03:21:24.645Z,3.80
2018-07-08T03:23:52.689Z,4.23
2018-07-08T03:26:20.757Z,5.63
2018-07-08T03:28:48.812Z,4.50
2018-07-08T03:31:16.955Z,3.87
2018-07-08T03:33:45.119Z,7.13
2018-07-08T03:36:13.197Z,5.77
2018-07-08T03:38:41.260Z,5.67
2018-07-08T03:41:09.304Z,6.13
2018-07-08T03:43:37.358Z,6.23
2018-07-08T03:46:05.474Z,5.80
2018-07-08T03:48:33.496Z,7.27
2018-07-08T03:51:01.609Z,7.43
2018-07-08T03:53:29.759Z,5.80
2018-07-08T03:55:57.791Z,5.73
2018-07-08T03:58:25.924Z,7.30
2018-07-08T04:00:54.104Z,6.43
2018-07-08T04:03:22.164Z,6.20
2018-07-08T04:05:50.279Z,6.40
2018-07-08T04:08:18.783Z,6.47
2018-07-08T04:10:46.805Z,7.80
2018-07-08T04:13:14.849Z,6.00
2018-07-08T04:15:43.041Z,6.57
2018-07-08T04:18:11.075Z,6.00
2018-07-08T04:20:39.856Z,5.03
2018-07-08T04:23:08.400Z,8.47
2018-07-08T04:25:36.445Z,7.50
2018-07-08T04:28:04.793Z,7.67
2018-07-08T04:30:33.097Z,6.67
2018-07-08T04:33:01.472Z,9.00
2018-07-08T04:35:29.681Z,7.83
2018-07-08T04:37:58.556Z,7.77
2018-07-08T04:40:26.630Z,6.03
2018-07-08T04:42:54.868Z,6.73
2018-07-08T04:45:23.169Z,6.93
2018-07-08T04:47:51.278Z,7.17
2018-07-08T04:50:19.373Z,5.60
2018-07-08T04:52:47.453Z,6.90
2018-07-08T04:55:15.526Z,6.03
2018-07-08T04:57:43.587Z,4.97
2018-07-08T05:00:11.715Z,7.37
2018-07-08T05:02:39.769Z,8.07
2018-07-08T05:05:08.797Z,5.17
2018-07-08T05:07:36.845Z,6.90
2018-07-08T05:10:05.139Z,7.30
2018-07-08T05:12:33.217Z,5.60
2018-07-08T05:15:01.261Z,6.23
2018-07-08T05:17:29.423Z,7.00
2018-07-08T05:19:57.487Z,7.23
2018-07-08T05:22:25.502Z,4.87
2018-07-08T05:24:53.695Z,4.20
2018-07-08T05:27:21.805Z,6.00
2018-07-08T05:29:49.875Z,5.47
2018-07-08T05:32:18.024Z,5.70
2018-07-08T05:34:46.133Z,6.03
2018-07-08T05:37:14.230Z,7.80
2018-07-08T05:39:42.267Z,4.67
2018-07-08T05:42:10.373Z,7.07
2018-07-08T05:44:38.418Z,8.10
2018-07-08T05:47:06.752Z,6.70
2018-07-08T05:49:34.843Z,4.83
2018-07-08T05:52:02.910Z,8.47
2018-07-08T05:54:31.031Z,5.67
2018-07-08T05:56:59.093Z,4.53
2018-07-08T05:59:27.163Z,5.07
2018-07-08T06:01:55.207Z,5.40
2018-07-08T06:04:23.255Z,4.47
2018-07-08T06:06:51.382Z,4.33
2018-07-08T06:09:19.424Z,5.37
2018-07-08T06:11:47.494Z,5.77
2018-07-08T06:14:15.785Z,4.57
2018-07-08T06:16:43.887Z,6.00
2018-07-08T06:19:11.908Z,4.37
2018-07-08T06:21:39.983Z,3.90
2018-07-08T06:24:09.085Z,3.30
2018-07-08T06:26:37.206Z,4.10
2018-07-08T06:29:05.391Z,4.03
2018-07-08T06:31:33.472Z,4.90
2018-07-08T06:34:01.569Z,4.33
2018-07-08T06:36:29.602Z,2.97
2018-07-08T06:38:57.713Z,3.47
2018-07-08T06:41:25.749Z,3.27
2018-07-08T06:43:53.890Z,4.63
2018-07-08T06:46:21.935Z,4.00
2018-07-08T06:48:49.996Z,5.73
2018-07-08T06:51:18.135Z,5.43
2018-07-08T06:53:46.361Z,6.53
2018-07-08T06:56:14.525Z,4.17
2018-07-08T06:58:42.648Z,4.77
2018-07-08T07:01:10.856Z,6.03
2018-07-08T07:03:39.115Z,4.10
2018-07-08T07:06:07.252Z,4.97
2018-07-08T07:08:35.345Z,3.70
2018-07-08T07:11:03.457Z,4.37
2018-07-08T07:13:31.637Z,4.17
2018-07-08T07:16:00.189Z,4.60
2018-07-08T07:18:28.239Z,4.67
2018-07-08T07:20:56.324Z,3.20
2018-07-08T07:23:24.489Z,5.37
2018-07-08T07:25:52.536Z,3.70
2018-07-08T07:28:20.626Z,4.13
2018-07-08T07:30:48.680Z,5.33
2018-07-08T07:33:16.801Z,3.03
2018-07-08T07:35:44.903Z,1.97
2018-07-08T07:38:12.952Z,4.57
2018-07-08T07:40:41.026Z,3.90
2018-07-08T07:43:09.335Z,3.87
2018-07-08T07:45:37.396Z,5.30
2018-07-08T07:48:05.597Z,5.67
2018-07-08T07:50:33.680Z,2.43
2018-07-08T07:53:01.751Z,2.20
2018-07-08T07:55:29.897Z,2.87
2018-07-08T07:57:57.942Z,3.70
2018-07-08T08:00:26.093Z,4.23
2018-07-08T08:02:54.165Z,4.73
2018-07-08T08:05:22.250Z,5.47
2018-07-08T08:07:50.381Z,4.93
2018-07-08T08:10:18.539Z,3.37
2018-07-08T08:12:46.571Z,3.43
2018-07-08T08:15:14.687Z,4.00
2018-07-08T08:17:42.810Z,6.77
2018-07-08T08:20:11.019Z,3.87
2018-07-08T08:22:39.072Z,4.43
2018-07-08T08:25:07.246Z,3.13
2018-07-08T08:27:35.404Z,4.77
2018-07-08T08:30:03.533Z,4.17
2018-07-08T08:32:31.811Z,3.30
2018-07-08T08:35:05.350Z,4.13
2018-07-08T08:37:39.731Z,3.00
2018-07-08T08:40:08.181Z,4.47
2018-07-08T08:42:36.314Z,3.90
2018-07-08T08:45:04.595Z,4.10
2018-07-08T08:47:33.243Z,3.53
2018-07-08T08:50:01.412Z,5.17
2018-07-08T08:52:29.576Z,4.70
2018-07-08T08:54:57.928Z,4.63
2018-07-08T08:57:26.149Z,5.00
2018-07-08T08:59:54.482Z,3.30
2018-07-08T09:02:22.609Z,4.13
2018-07-08T09:04:50.734Z,3.00
2018-07-08T09:07:19.835Z,4.03
2018-07-08T09:09:47.913Z,3.43
2018-07-08T09:12:16.083Z,2.87
2018-07-08T09:14:44.142Z,5.70
2018-07-08T09:17:12.411Z,5.33
2018-07-08T09:19:40.695Z,4.47
2018-07-08T09:22:08.872Z,5.13
2018-07-08T09:24:36.926Z,4.97
2018-07-08T09:27:05.029Z,4.40
2018-07-08T09:29:33.232Z,4.40
2018-07-08T09:32:01.522Z,3.87
2018-07-08T09:34:29.614Z,4.80
2018-07-08T09:36:57.672Z,4.60
2018-07-08T09:39:25.794Z,4.00
2018-07-08T09:41:54.072Z,5.03
2018-07-08T09:44:22.163Z,4.23
2018-07-08T09:46:50.368Z,3.53
2018-07-08T09:49:18.548Z,4.10
2018-07-08T09:51:47.368Z,3.80
2018-07-08T09:54:15.486Z,3.50
2018-07-08T09:56:43.554Z,4.30
2018-07-08T09:59:11.766Z,5.53
2018-07-08T10:01:43.158Z,5.17
2018-07-08T10:04:14.428Z,7.23
2018-07-08T10:06:43.243Z,5.07
2018-07-08T10:09:13.462Z,4.10
2018-07-08T10:11:41.583Z,5.40
2018-07-08T10:14:12.037Z,7.03
2018-07-08T10:16:40.232Z,5.97
2018-07-08T10:19:08.835Z,4.93
2018-07-08T10:21:36.913Z,4.87
2018-07-08T10:24:05.225Z,5.30
2018-07-08T10:26:33.553Z,4.63
2018-07-08T10:29:01.634Z,4.15
2018-07-08T10:31:35.355Z,6.37
2018-07-08T10:34:03.557Z,4.30
2018-07-08T10:36:31.877Z,6.33
2018-07-08T10:38:59.919Z,5.47
2018-07-08T10:41:27.957Z,4.37
2018-07-08T10:43:56.017Z,5.90
2018-07-08T10:46:24.699Z,5.23
2018-07-08T10:48:52.781Z,4.47
2018-07-08T10:51:20.819Z,4.10
2018-07-08T10:53:48.945Z,4.70
2018-07-08T10:56:17.003Z,3.37
2018-07-08T10:58:45.131Z,4.67
2018-07-08T11:01:13.223Z,5.17
2018-07-08T11:03:41.245Z,3.73
2018-07-08T11:06:09.395Z,4.73
2018-07-08T11:08:38.286Z,6.95
2018-07-08T11:11:06.538Z,6.20
2018-07-08T11:13:34.687Z,5.97
2018-07-08T11:16:02.839Z,4.33
2018-07-08T11:18:30.916Z,3.47
2018-07-08T11:20:59.005Z,2.60
2018-07-08T11:23:27.112Z,2.70
2018-07-08T11:25:55.140Z,3.02
2018-07-08T11:28:23.231Z,3.00
2018-07-08T11:30:51.292Z,3.90
2018-07-08T11:33:19.347Z,2.83
2018-07-08T11:35:47.672Z,3.98
2018-07-08T11:38:15.775Z,4.50
2018-07-08T11:40:43.869Z,2.90
2018-07-08T11:43:16.687Z,2.20
2018-07-08T11:45:48.676Z,3.87
2018-07-08T11:48:27.245Z,3.30
2018-07-08T11:50:55.348Z,2.42
2018-07-08T11:53:23.451Z,3.00
2018-07-08T11:55:51.491Z,2.33
2018-07-08T11:58:19.735Z,3.08
2018-07-08T12:00:48.681Z,2.85
2018-07-08T12:03:17.201Z,2.10
2018-07-08T12:05:45.435Z,2.08
2018-07-08T12:08:13.517Z,2.12
2018-07-08T12:10:42.985Z,2.22
2018-07-08T12:13:11.561Z,2.67
2018-07-08T12:15:39.653Z,2.17
2018-07-08T12:18:07.943Z,3.47
2018-07-08T12:20:36.369Z,2.08
2018-07-08T12:23:04.796Z,3.75
2018-07-08T12:25:32.848Z,3.95
2018-07-08T12:28:00.949Z,4.20
2018-07-08T12:30:28.999Z,4.37
2018-07-08T12:32:57.045Z,1.80
2018-07-08T12:35:25.157Z,2.02
2018-07-08T12:37:53.185Z,1.87
2018-07-08T12:40:21.285Z,2.27
2018-07-08T12:42:49.357Z,1.92
2018-07-08T12:45:17.659Z,2.42
2018-07-08T12:47:45.859Z,2.10
2018-07-08T12:50:13.951Z,2.50
2018-07-08T12:52:45.841Z,3.05
2018-07-08T12:55:15.281Z,3.42
2018-07-08T12:57:43.311Z,2.02
2018-07-08T13:00:11.427Z,2.55
2018-07-08T13:02:46.045Z,4.10
2018-07-08T13:05:14.189Z,3.12
2018-07-08T13:07:42.285Z,1.80
2018-07-08T13:10:10.381Z,2.22
2018-07-08T13:12:38.439Z,3.30
2018-07-08T13:15:06.546Z,2.10
2018-07-08T13:17:34.605Z,2.55
2018-07-08T13:20:02.802Z,1.70
2018-07-08T13:22:32.894Z,1.72
2018-07-08T13:25:01.001Z,1.60
2018-07-08T13:27:29.161Z,2.08
2018-07-08T13:29:57.469Z,1.87
2018-07-08T13:32:25.566Z,1.67
2018-07-08T13:34:54.253Z,1.62
2018-07-08T13:37:25.325Z,2.58
2018-07-08T13:39:54.323Z,2.40
2018-07-08T13:42:24.229Z,1.80
2018-07-08T13:44:53.075Z,2.55
2018-07-08T13:47:22.225Z,2.52
2018-07-08T13:49:50.401Z,1.90
2018-07-08T13:52:18.523Z,1.80
2018-07-08T13:54:46.666Z,1.60
2018-07-08T13:57:14.748Z,6.03
2018-07-08T13:59:46.287Z,1.65
2018-07-08T14:02:14.420Z,2.22
2018-07-08T14:04:42.746Z,4.37
2018-07-08T14:07:11.020Z,2.95
2018-07-08T14:09:40.070Z,1.77
2018-07-08T14:12:08.305Z,3.05
2018-07-08T14:14:36.562Z,2.12
2018-07-08T14:17:04.662Z,1.75
2018-07-08T14:19:33.669Z,1.65
2018-07-08T14:22:03.628Z,1.95
2018-07-08T14:24:31.710Z,2.25
2018-07-08T14:27:00.199Z,2.47
2018-07-08T14:29:29.705Z,3.12
2018-07-08T14:31:59.591Z,2.10
2018-07-08T14:34:27.865Z,2.72
2018-07-08T14:36:56.008Z,2.60
2018-07-08T14:39:25.811Z,4.12
2018-07-08T14:41:53.954Z,2.15
2018-07-08T14:44:22.739Z,1.75
2018-07-08T14:46:51.032Z,2.25
2018-07-08T14:49:19.586Z,2.52
2018-07-08T14:51:48.096Z,2.05
2018-07-08T14:54:16.193Z,2.67
2018-07-08T14:56:44.289Z,2.10
2018-07-08T14:59:12.374Z,1.90
2018-07-08T15:01:40.468Z,2.30
2018-07-08T15:04:08.539Z,2.10
2018-07-08T15:06:36.848Z,1.80
2018-07-08T15:09:06.891Z,4.75
2018-07-08T15:11:35.162Z,2.27
2018-07-08T15:14:03.529Z,1.72
2018-07-08T15:16:31.640Z,2.35
2018-07-08T15:18:59.753Z,2.42
2018-07-08T15:21:27.922Z,2.00
2018-07-08T15:23:55.974Z,2.47
2018-07-08T15:26:24.088Z,2.58
2018-07-08T15:28:52.267Z,2.10
2018-07-08T15:31:20.576Z,3.75
2018-07-08T15:33:48.755Z,2.45
2018-07-08T15:36:16.956Z,3.12
2018-07-08T15:38:46.142Z,2.83
2018-07-08T15:41:16.570Z,2.30
2018-07-08T15:43:45.789Z,2.25
2018-07-08T15:46:14.258Z,3.35
2018-07-08T15:48:44.862Z,4.30
2018-07-08T15:51:14.142Z,1.92
2018-07-08T15:53:42.285Z,1.80
2018-07-08T15:56:10.368Z,1.75
2018-07-08T15:58:38.528Z,2.10
2018-07-08T16:01:06.796Z,2.50
2018-07-08T16:03:35.690Z,5.12
2018-07-08T16:06:04.146Z,3.15
2018-07-08T16:08:32.292Z,2.85
2018-07-08T16:11:00.351Z,2.47
2018-07-08T16:13:28.872Z,3.60
2018-07-08T16:15:57.586Z,2.70
2018-07-08T16:18:25.999Z,2.02
2018-07-08T16:20:54.167Z,2.22
2018-07-08T16:23:22.902Z,2.05
2018-07-08T16:25:50.991Z,1.80
2018-07-08T16:28:19.119Z,2.37
2018-07-08T16:30:48.505Z,2.35
2018-07-08T16:33:16.614Z,1.72
2018-07-08T16:35:45.982Z,2.50
2018-07-08T16:38:14.046Z,1.85
2018-07-08T16:40:42.221Z,2.17
2018-07-08T16:43:11.856Z,1.75
2018-07-08T16:45:40.031Z,2.47
2018-07-08T16:48:08.084Z,4.10
2018-07-08T16:50:36.264Z,3.92
2018-07-08T16:53:05.609Z,3.35
2018-07-08T16:55:33.961Z,3.08
2018-07-08T16:58:02.721Z,2.22
2018-07-08T17:00:30.844Z,1.65
2018-07-08T17:02:58.942Z,2.67
2018-07-08T17:05:27.129Z,1.60
2018-07-08T17:07:55.192Z,2.30
2018-07-08T17:10:23.521Z,2.25
2018-07-08T17:12:51.623Z,1.98
2018-07-08T17:15:20.317Z,1.50
2018-07-08T17:17:48.850Z,2.20
2018-07-08T17:20:17.011Z,2.75
2018-07-08T17:22:45.175Z,2.92
2018-07-08T17:25:13.498Z,2.90
2018-07-08T17:27:41.593Z,2.87
2018-07-08T17:30:10.040Z,2.10
2018-07-08T17:32:38.142Z,2.17
2018-07-08T17:35:06.693Z,2.77
2018-07-08T17:37:34.843Z,2.23
2018-07-08T17:40:02.986Z,3.23
2018-07-08T17:42:31.097Z,1.93
2018-07-08T17:44:59.171Z,3.17
2018-07-08T17:47:27.215Z,3.60
2018-07-08T17:49:55.296Z,2.50
2018-07-08T17:52:23.329Z,2.80
2018-07-08T17:54:51.395Z,3.27
2018-07-08T17:57:19.512Z,2.33
2018-07-08T17:59:47.685Z,2.07
2018-07-08T18:02:15.753Z,2.37
2018-07-08T18:04:43.886Z,3.90
2018-07-08T18:07:12.037Z,2.30
2018-07-08T18:09:40.162Z,3.23
2018-07-08T18:12:08.398Z,2.73
2018-07-08T18:14:36.626Z,3.90
2018-07-08T18:17:06.025Z,2.17
2018-07-08T18:19:34.094Z,3.87
2018-07-08T18:22:02.645Z,2.53
2018-07-08T18:24:30.814Z,2.53
2018-07-08T18:27:00.635Z,2.07
2018-07-08T18:29:28.730Z,4.33
2018-07-08T18:31:56.797Z,2.37
2018-07-08T18:34:24.928Z,3.70
2018-07-08T18:36:52.990Z,2.20
2018-07-08T18:39:21.110Z,2.00
2018-07-08T18:41:49.198Z,2.47
2018-07-08T18:44:17.314Z,2.30
2018-07-08T18:46:46.335Z,2.70
2018-07-08T18:49:14.422Z,4.30
2018-07-08T18:51:43.136Z,2.20
2018-07-08T18:54:11.462Z,2.50
2018-07-08T18:56:39.548Z,2.33
2018-07-08T18:59:07.801Z,3.20
2018-07-08T19:01:35.956Z,2.40
2018-07-08T19:04:04.136Z,3.30
2018-07-08T19:06:32.336Z,2.63
2018-07-08T19:09:00.392Z,3.13
2018-07-08T19:11:28.624Z,2.10
2018-07-08T19:13:56.742Z,4.50
2018-07-08T19:16:24.888Z,2.83
2018-07-08T19:18:52.982Z,4.20
2018-07-08T19:21:21.090Z,2.37
2018-07-08T19:23:49.223Z,2.17
2018-07-08T19:26:17.346Z,2.40
2018-07-08T19:28:45.443Z,2.27
2018-07-08T19:31:13.616Z,2.70
2018-07-08T19:33:41.778Z,3.30
2018-07-08T19:36:09.909Z,3.73
2018-07-08T19:38:38.119Z,3.90
2018-07-08T19:41:06.242Z,2.70
2018-07-08T19:43:34.363Z,3.07
2018-07-08T19:46:02.467Z,2.50
2018-07-08T19:48:30.536Z,2.60
2018-07-08T19:50:58.645Z,3.70
2018-07-08T19:53:26.765Z,3.43
2018-07-08T19:55:54.953Z,2.60
2018-07-08T19:58:23.849Z,3.87
2018-07-08T20:00:52.001Z,3.07
2018-07-08T20:03:20.117Z,2.87
2018-07-08T20:05:48.238Z,4.33
2018-07-08T20:08:17.823Z,3.13
2018-07-08T20:10:46.207Z,4.70
2018-07-08T20:13:14.373Z,2.63
2018-07-08T20:15:47.573Z,3.03
2018-07-08T20:18:15.763Z,2.90
2018-07-08T20:20:45.165Z,3.10
2018-07-08T20:23:13.259Z,3.40
2018-07-08T20:25:41.398Z,3.03
2018-07-08T20:28:10.403Z,3.00
2018-07-08T20:30:39.569Z,4.07
2018-07-08T20:33:07.634Z,4.60
2018-07-08T20:35:35.786Z,2.90
2018-07-08T20:38:03.877Z,3.73
2018-07-08T20:40:32.001Z,4.60
2018-07-08T20:43:00.117Z,2.73
2018-07-08T20:45:28.499Z,4.10
2018-07-08T20:47:56.647Z,3.40
2018-07-08T20:50:24.655Z,3.77
2018-07-08T20:52:52.745Z,6.73
2018-07-08T20:55:21.285Z,3.53
2018-07-08T20:57:49.599Z,3.50
2018-07-08T21:00:17.937Z,3.87
2018-07-08T21:02:46.112Z,2.90
2018-07-08T21:05:15.269Z,4.00
2018-07-08T21:07:50.916Z,2.90
2018-07-08T21:10:28.141Z,3.43
2018-07-08T21:12:57.711Z,3.37
2018-07-08T21:15:26.666Z,3.07
2018-07-08T21:17:54.785Z,3.70
2018-07-08T21:20:22.843Z,3.03
2018-07-08T21:22:51.811Z,3.37
2018-07-08T21:25:19.854Z,3.33
2018-07-08T21:27:47.957Z,4.43
2018-07-08T21:30:16.137Z,4.23
2018-07-08T21:32:46.362Z,4.37
2018-07-08T21:35:19.493Z,3.07
2018-07-08T21:37:47.610Z,3.47
2018-07-08T21:40:15.690Z,4.60
2018-07-08T21:43:15.634Z,4.40
2018-07-08T21:45:46.366Z,3.30
2018-07-08T21:48:14.421Z,4.27
2018-07-08T21:50:52.841Z,4.87
2018-07-08T21:53:21.368Z,3.93
2018-07-08T21:55:49.450Z,3.83
2018-07-08T21:58:19.352Z,3.67
2018-07-08T22:00:57.400Z,3.20
2018-07-08T22:03:26.541Z,5.10
2018-07-08T22:05:54.663Z,6.70
2018-07-08T22:08:40.677Z,3.37
2018-07-08T22:11:10.377Z,4.00
2018-07-08T22:13:41.937Z,4.53
2018-07-08T22:16:10.126Z,3.10
2018-07-08T22:18:38.604Z,4.97
2018-07-08T22:21:07.363Z,3.80
2018-07-08T22:23:35.705Z,3.23
2018-07-08T22:26:04.291Z,4.13
2018-07-08T22:28:32.958Z,4.07
2018-07-08T22:31:01.231Z,4.20
2018-07-08T22:33:29.368Z,3.90
2018-07-08T22:35:57.735Z,5.60
2018-07-08T22:38:25.810Z,3.97
2018-07-08T22:40:53.875Z,4.33
2018-07-08T22:43:22.042Z,5.30
2018-07-08T22:45:50.089Z,3.17
2018-07-08T22:48:29.107Z,4.63
2018-07-08T22:50:57.993Z,3.13
2018-07-08T22:53:28.229Z,3.73
2018-07-08T22:55:56.271Z,4.60
2018-07-08T22:58:24.317Z,4.60
2018-07-08T23:00:57.977Z,3.40
2018-07-08T23:03:45.391Z,3.33
2018-07-08T23:06:13.799Z,4.20
2018-07-08T23:08:41.859Z,4.70
2018-07-08T23:11:10.922Z,4.83
2018-07-08T23:13:39.023Z,4.27
2018-07-08T23:16:08.391Z,4.60
2018-07-08T23:18:37.273Z,5.17
2018-07-08T23:21:05.444Z,4.53
2018-07-08T23:23:33.575Z,4.73
2018-07-08T23:26:01.774Z,4.70
2018-07-08T23:28:30.309Z,5.17
2018-07-08T23:30:58.396Z,4.03
2018-07-08T23:33:26.737Z,4.37
2018-07-08T23:35:54.917Z,4.23
2018-07-08T23:38:23.187Z,4.67
2018-07-08T23:40:51.269Z,3.53
2018-07-08T23:43:19.439Z,5.33
2018-07-08T23:45:47.539Z,4.13
2018-07-08T23:48:15.735Z,3.57
2018-07-08T23:50:43.829Z,3.60
2018-07-08T23:53:11.887Z,3.30
2018-07-08T23:55:40.176Z,3.37
2018-07-08T23:58:08.653Z,4.00
